Time;durP1;ratioP1;P1;durP2;ratioP2;P2;SDS_P1;SDS_P2;PMS_P1;PMS_P2;Temp;Humidity;BMP_temperature;BMP_pressure;BME280_temperature;BME280_humidity;BME280_pressure;Samples;Min_cycle;Max_cycle;Signal;HPM_P1;HPM_P2
2023/08/10 00:01:12;;;;;;;7.35;3.42;;;;;;;13.62;95.61;102027.78;5098100;28;20040;-52
2023/08/10 00:03:37;;;;;;;9.43;3.50;;;;;;;13.63;96.96;102026.81;5097187;28;20034;-50
2023/08/10 00:06:02;;;;;;;6.22;3.38;;;;;;;13.64;96.05;102029.38;5098654;28;20020;-50
2023/08/10 00:08:29;;;;;;;6.50;3.10;;;;;;;13.68;95.08;102040.69;5097095;28;20024;-50
2023/08/10 00:10:55;;;;;;;6.38;3.22;;;;;;;13.69;96.47;102039.75;5096568;28;20024;-50
2023/08/10 00:13:21;;;;;;;7.10;3.30;;;;;;;13.69;95.79;102035.25;5098970;28;20023;-50
2023/08/10 00:15:46;;;;;;;7.93;3.55;;;;;;;13.73;95.92;102032.38;5095335;28;20099;-51
2023/08/10 00:18:11;;;;;;;5.88;3.00;;;;;;;13.76;95.64;102030.31;5095537;28;20465;-50
2023/08/10 00:20:37;;;;;;;4.57;3.38;;;;;;;13.76;96.67;102030.31;5096152;28;20019;-50
2023/08/10 00:23:02;;;;;;;6.05;3.10;;;;;;;13.77;96.38;102033.84;5101211;28;20027;-50
2023/08/10 00:25:28;;;;;;;4.70;3.20;;;;;;;13.77;96.54;102037.38;5097075;28;20393;-50
2023/08/10 00:27:55;;;;;;;8.40;3.35;;;;;;;13.75;96.12;102031.28;5100434;28;20062;-50
2023/08/10 00:30:21;;;;;;;5.55;3.50;;;;;;;13.74;96.91;102024.25;5096115;28;20342;-50
2023/08/10 00:32:46;;;;;;;5.60;3.22;;;;;;;13.80;96.67;102038.97;5096848;28;20024;-50
2023/08/10 00:35:12;;;;;;;6.35;3.50;;;;;;;13.80;96.65;102036.31;5093700;28;20024;-50
2023/08/10 00:37:37;;;;;;;7.35;3.50;;;;;;;13.80;97.08;102038.97;5097019;28;20092;-50
2023/08/10 00:40:03;;;;;;;6.63;3.78;;;;;;;13.86;96.79;102043.88;5098889;28;20612;-50
2023/08/10 00:42:28;;;;;;;5.65;3.38;;;;;;;13.87;96.93;102041.09;5099381;28;20036;-50
2023/08/10 00:44:54;;;;;;;4.82;3.17;;;;;;;13.87;97.06;102029.53;5101428;28;20451;-50
2023/08/10 00:47:19;;;;;;;5.13;3.20;;;;;;;13.84;96.49;102032.47;5100865;28;20022;-50
2023/08/10 00:49:45;;;;;;;11.70;4.13;;;;;;;13.83;97.75;102026.25;5094729;28;20028;-49
2023/08/10 00:52:11;;;;;;;6.13;3.28;;;;;;;13.83;98.30;102031.59;5101164;28;20118;-51
2023/08/10 00:54:36;;;;;;;7.82;3.60;;;;;;;13.82;97.00;102024.56;5099984;28;20107;-50
2023/08/10 00:57:02;;;;;;;4.13;3.25;;;;;;;13.81;97.50;102027.34;5100566;28;20109;-50
2023/08/10 00:59:30;;;;;;;9.07;3.38;;;;;;;13.79;97.30;102024.78;5096817;28;20016;-50
2023/08/10 01:01:55;;;;;;;8.93;4.15;;;;;;;13.82;97.93;102024.56;5099047;28;20054;-49
2023/08/10 01:04:21;;;;;;;7.10;3.60;;;;;;;13.80;97.78;102026.47;5096770;28;20540;-50
2023/08/10 01:06:52;;;;;;;6.95;3.40;;;;;;;13.78;98.51;102028.41;5099093;28;20364;-50
2023/08/10 01:09:40;;;;;;;7.25;3.90;;;;;;;13.79;97.99;102032.78;5094756;28;20032;-50
2023/08/10 01:12:28;;;;;;;7.97;3.63;;;;;;;13.79;98.08;102030.13;5094386;28;20051;-50
2023/08/10 01:14:59;;;;;;;9.63;3.90;;;;;;;13.79;98.52;102039.91;5089702;28;20048;-50
2023/08/10 01:17:31;;;;;;;5.38;3.60;;;;;;;13.77;98.38;102026.72;5099464;28;20027;-50
2023/08/10 01:20:03;;;;;;;5.53;3.67;;;;;;;13.75;98.96;102033.94;5093596;28;20027;-50
2023/08/10 01:22:48;;;;;;;9.30;3.72;;;;;;;13.77;98.28;102029.38;5091727;28;20103;-50
2023/08/10 01:25:15;;;;;;;9.27;3.63;;;;;;;13.73;98.89;102029.69;5092695;28;20039;-50
2023/08/10 01:27:41;;;;;;;7.28;3.85;;;;;;;13.72;99.26;102034.16;5100760;28;20020;-49
2023/08/10 01:30:08;;;;;;;9.27;4.13;;;;;;;13.69;98.55;102035.25;5094905;28;20028;-50
2023/08/10 01:32:33;;;;;;;6.65;3.83;;;;;;;13.71;98.34;102034.31;5095277;28;20422;-50
2023/08/10 01:35:00;;;;;;;7.38;3.88;;;;;;;13.68;99.11;102035.34;5100126;28;20066;-50
2023/08/10 01:37:26;;;;;;;5.75;3.63;;;;;;;13.70;98.55;102030.75;5097797;28;20461;-50
2023/08/10 01:39:51;;;;;;;10.20;3.88;;;;;;;13.65;99.01;102039.09;5094634;28;20020;-50
2023/08/10 01:42:16;;;;;;;7.35;4.03;;;;;;;13.64;98.36;102031.22;5100434;28;20034;-50
2023/08/10 01:44:43;;;;;;;7.90;3.72;;;;;;;13.62;99.12;102035.78;5097515;28;20481;-49
2023/08/10 01:47:24;;;;;;;7.32;4.00;;;;;;;13.59;98.91;102034.19;5098963;28;20031;-50
2023/08/10 01:49:54;;;;;;;7.45;4.00;;;;;;;13.56;99.56;102039.75;5094536;28;20089;-50
2023/08/10 01:52:25;;;;;;;6.40;3.53;;;;;;;13.54;99.55;102035.47;5100334;28;20103;-50
2023/08/10 01:54:51;;;;;;;8.88;4.03;;;;;;;13.50;99.70;102034.84;5096088;28;20024;-50
2023/08/10 01:57:17;;;;;;;8.52;4.10;;;;;;;13.48;100.00;102044.78;5095242;28;20023;-50
2023/08/10 01:59:42;;;;;;;6.70;3.90;;;;;;;13.48;100.00;102044.78;5099493;28;20030;-50
2023/08/10 02:02:08;;;;;;;6.57;3.92;;;;;;;13.47;100.00;102030.56;5095158;28;20024;-50
2023/08/10 02:04:33;;;;;;;5.45;4.00;;;;;;;13.44;100.00;102041.47;5099293;28;20027;-50
2023/08/10 02:06:58;;;;;;;5.03;3.72;;;;;;;13.41;100.00;102044.34;5094026;28;20039;-50
2023/08/10 02:09:24;;;;;;;5.57;4.20;;;;;;;13.36;100.00;102051.81;5092315;28;20065;-50
2023/08/10 02:11:49;;;;;;;4.72;4.03;;;;;;;13.35;100.00;102050.09;5098010;28;20525;-50
2023/08/10 02:14:14;;;;;;;9.40;3.95;;;;;;;13.30;100.00;102050.38;5094863;28;20346;-50
2023/08/10 02:16:40;;;;;;;4.47;4.03;;;;;;;13.31;100.00;102038.75;5098339;28;20116;-50
2023/08/10 02:19:05;;;;;;;7.72;3.92;;;;;;;13.23;100.00;102045.59;5093429;28;20505;-50
2023/08/10 02:21:30;;;;;;;5.45;3.90;;;;;;;13.22;100.00;102044.75;5099270;28;20106;-50
2023/08/10 02:23:56;;;;;;;6.15;3.92;;;;;;;13.20;100.00;102049.31;5090486;28;20073;-50
2023/08/10 02:26:21;;;;;;;6.38;3.72;;;;;;;13.19;100.00;102049.41;5094161;28;20107;-50
2023/08/10 02:28:46;;;;;;;3.72;3.35;;;;;;;13.19;100.00;102058.28;5097575;28;20035;-50
2023/08/10 02:31:12;;;;;;;4.13;3.72;;;;;;;13.14;100.00;102057.75;5094945;28;20030;-50
2023/08/10 02:33:37;;;;;;;5.20;3.95;;;;;;;13.13;100.00;102053.34;5096281;28;20021;-51
2023/08/10 02:36:03;;;;;;;6.80;3.65;;;;;;;13.08;100.00;102056.34;5096022;28;20016;-51
2023/08/10 02:38:28;;;;;;;5.18;3.63;;;;;;;13.10;100.00;102048.22;5098808;28;20490;-50
2023/08/10 02:40:53;;;;;;;4.43;4.05;;;;;;;13.03;100.00;102055.78;5099880;28;20020;-50
2023/08/10 02:43:19;;;;;;;4.88;4.22;;;;;;;13.00;100.00;102055.16;5097670;28;20120;-50
2023/08/10 02:45:44;;;;;;;4.93;4.22;;;;;;;12.98;100.00;102049.06;5102090;28;20027;-51
2023/08/10 02:48:09;;;;;;;6.97;4.22;;;;;;;12.94;100.00;102057.28;5100266;28;20035;-50
2023/08/10 02:50:35;;;;;;;7.45;4.25;;;;;;;12.92;100.00;102053.00;5101028;28;20482;-52
2023/08/10 02:53:00;;;;;;;7.43;4.10;;;;;;;12.89;100.00;102051.41;5106566;28;20020;-50
2023/08/10 02:55:26;;;;;;;5.60;3.95;;;;;;;12.86;100.00;102056.09;5099513;28;20024;-50
2023/08/10 02:57:51;;;;;;;5.50;4.13;;;;;;;12.83;100.00;102056.28;5099406;27;20031;-50
2023/08/10 03:00:17;;;;;;;7.60;4.50;;;;;;;12.81;100.00;102055.53;5102420;28;20357;-50
2023/08/10 03:02:43;;;;;;;4.75;4.10;;;;;;;12.74;100.00;102055.94;5096832;28;20118;-51
2023/08/10 03:05:08;;;;;;;6.22;4.32;;;;;;;12.71;100.00;102056.16;5099529;28;20091;-50
2023/08/10 03:07:34;;;;;;;4.90;4.10;;;;;;;12.74;100.00;102061.28;5100875;28;20462;-50
2023/08/10 03:09:59;;;;;;;9.10;4.75;;;;;;;12.68;100.00;102067.00;5092778;28;20032;-51
2023/08/10 03:12:24;;;;;;;10.07;4.80;;;;;;;12.69;100.00;102065.19;5101760;28;20024;-51
2023/08/10 03:14:50;;;;;;;5.15;4.15;;;;;;;12.64;100.00;102072.63;5098460;28;20035;-51
2023/08/10 03:17:15;;;;;;;7.20;4.50;;;;;;;12.59;100.00;102060.47;5097706;28;20115;-50
2023/08/10 03:19:44;;;;;;;8.00;4.80;;;;;;;12.60;100.00;102071.97;5100981;28;20059;-50
2023/08/10 03:22:10;;;;;;;8.60;4.13;;;;;;;12.61;100.00;102071.03;5098957;28;20024;-50
2023/08/10 03:24:36;;;;;;;6.75;5.30;;;;;;;12.56;100.00;102070.50;5098741;28;20035;-50
2023/08/10 03:27:01;;;;;;;5.07;4.47;;;;;;;12.57;100.00;102078.38;5101371;28;20162;-50
2023/08/10 03:29:27;;;;;;;7.03;4.30;;;;;;;12.55;100.00;102068.75;5102696;28;20102;-50
2023/08/10 03:31:52;;;;;;;7.05;4.65;;;;;;;12.56;100.00;102070.50;5100668;28;20111;-50
2023/08/10 03:34:17;;;;;;;8.85;4.60;;;;;;;12.54;100.00;102067.03;5094731;28;20027;-50
2023/08/10 03:36:43;;;;;;;5.28;4.20;;;;;;;12.51;100.00;102053.94;5098224;28;20023;-50
2023/08/10 03:39:08;;;;;;;6.88;5.10;;;;;;;12.52;100.00;102060.97;5100427;28;20066;-50
2023/08/10 03:41:33;;;;;;;7.72;4.93;;;;;;;12.52;100.00;102061.84;5095199;28;20044;-51
2023/08/10 03:43:58;;;;;;;7.22;5.15;;;;;;;12.48;100.00;102054.16;5101826;28;20386;-50
2023/08/10 03:46:24;;;;;;;8.65;4.82;;;;;;;12.50;100.00;102057.56;5096495;28;20489;-50
2023/08/10 03:48:50;;;;;;;6.18;4.47;;;;;;;12.48;100.00;102055.00;5099405;28;20043;-50
2023/08/10 03:51:16;;;;;;;5.43;4.38;;;;;;;12.46;100.00;102062.22;5095528;28;20431;-50
2023/08/10 03:53:41;;;;;;;6.82;5.00;;;;;;;12.49;100.00;102064.69;5102666;28;20081;-50
2023/08/10 03:56:06;;;;;;;10.10;4.68;;;;;;;12.46;100.00;102066.72;5100666;28;20099;-50
2023/08/10 03:58:33;;;;;;;5.20;4.63;;;;;;;12.44;100.00;102072.16;5093216;28;20059;-50
2023/08/10 04:00:58;;;;;;;6.03;4.60;;;;;;;12.44;100.00;102063.28;5096681;28;20075;-50
2023/08/10 04:03:23;;;;;;;5.05;4.55;;;;;;;12.43;100.00;102064.25;5101539;28;20070;-50
2023/08/10 04:05:51;;;;;;;6.38;4.88;;;;;;;12.38;100.00;102065.38;5100170;28;20111;-50
2023/08/10 04:08:16;;;;;;;6.35;4.53;;;;;;;12.37;100.00;102068.16;5094056;28;20455;-50
2023/08/10 04:10:41;;;;;;;6.07;4.93;;;;;;;12.35;100.00;102067.41;5095931;28;20037;-51
2023/08/10 04:13:07;;;;;;;5.22;4.72;;;;;;;12.31;100.00;102064.09;5095396;28;20035;-50
2023/08/10 04:15:32;;;;;;;8.35;5.35;;;;;;;12.33;100.00;102072.81;5099050;28;20493;-50
2023/08/10 04:17:58;;;;;;;6.47;5.00;;;;;;;12.34;100.00;102074.53;5101946;28;20016;-50
2023/08/10 04:20:23;;;;;;;10.35;5.20;;;;;;;12.32;100.00;102076.47;5096466;28;20109;-52
2023/08/10 04:22:48;;;;;;;6.25;4.82;;;;;;;12.30;100.00;102070.34;5093568;28;20466;-50
2023/08/10 04:25:14;;;;;;;4.95;4.47;;;;;;;12.29;100.00;102073.13;5103402;28;20486;-50
2023/08/10 04:27:40;;;;;;;6.75;5.20;;;;;;;12.26;100.00;102079.50;5100236;28;20457;-50
2023/08/10 04:30:08;;;;;;;8.10;4.95;;;;;;;12.25;100.00;102074.28;5098340;28;20047;-50
2023/08/10 04:32:34;;;;;;;9.55;5.18;;;;;;;12.26;100.00;102082.16;5100112;28;20541;-51
2023/08/10 04:34:59;;;;;;;6.85;5.32;;;;;;;12.23;100.00;102082.38;5094697;27;20032;-50
2023/08/10 04:37:25;;;;;;;7.97;5.07;;;;;;;12.27;100.00;102083.88;5100490;28;20024;-50
2023/08/10 04:39:50;;;;;;;9.05;5.70;;;;;;;12.26;100.00;102082.16;5101372;28;20115;-50
2023/08/10 04:42:15;;;;;;;6.05;5.32;;;;;;;12.23;100.00;102085.03;5096362;28;20120;-52
2023/08/10 04:44:41;;;;;;;7.43;5.13;;;;;;;12.23;100.00;102090.34;5098724;28;20228;-51
2023/08/10 04:47:06;;;;;;;8.07;5.15;;;;;;;12.19;100.00;102088.81;5100378;28;20101;-50
2023/08/10 04:49:31;;;;;;;6.57;5.38;;;;;;;12.18;100.00;102101.28;5097290;28;20107;-50
2023/08/10 04:51:57;;;;;;;7.97;5.18;;;;;;;12.23;100.00;102102.81;5097691;28;20032;-50
2023/08/10 04:54:22;;;;;;;9.32;5.60;;;;;;;12.27;100.00;102101.66;5096983;28;20043;-50
2023/08/10 04:56:48;;;;;;;9.57;5.45;;;;;;;12.27;100.00;102101.66;5092169;28;20020;-50
2023/08/10 04:59:14;;;;;;;7.63;5.70;;;;;;;12.33;100.00;102101.28;5099943;28;20032;-51
2023/08/10 05:01:39;;;;;;;7.38;5.88;;;;;;;12.34;100.00;102100.31;5092909;28;20137;-50
2023/08/10 05:04:05;;;;;;;6.63;5.65;;;;;;;12.37;100.00;102095.66;5090946;28;20497;-50
2023/08/10 05:06:31;;;;;;;8.30;6.43;;;;;;;12.42;100.00;102103.34;5094167;28;20043;-50
2023/08/10 05:08:56;;;;;;;7.85;6.38;;;;;;;12.46;100.00;102101.34;5097296;28;20027;-50
2023/08/10 05:11:23;;;;;;;9.02;6.00;;;;;;;12.51;100.00;102097.44;5095871;28;20070;-50
2023/08/10 05:13:48;;;;;;;8.32;6.03;;;;;;;12.54;100.00;102097.22;5091008;28;20073;-50
2023/08/10 05:16:14;;;;;;;9.77;5.80;;;;;;;12.57;100.00;102094.38;5093907;28;20027;-51
2023/08/10 05:18:40;;;;;;;13.63;6.07;;;;;;;12.61;100.00;102100.34;5094745;28;20031;-50
2023/08/10 05:21:05;;;;;;;7.53;6.03;;;;;;;12.66;100.00;102100.06;5096012;28;20439;-50
2023/08/10 05:23:31;;;;;;;8.70;5.78;;;;;;;12.70;100.00;102101.56;5098577;28;20156;-50
2023/08/10 05:25:56;;;;;;;8.57;6.28;;;;;;;12.72;100.00;102104.97;5094436;28;20024;-50
2023/08/10 05:28:22;;;;;;;8.02;6.50;;;;;;;12.77;100.00;102100.19;5090602;28;20118;-50
2023/08/10 05:30:47;;;;;;;8.38;6.13;;;;;;;12.82;100.00;102106.06;5096032;28;20024;-50
2023/08/10 05:33:12;;;;;;;9.70;6.60;;;;;;;12.88;100.00;102108.34;5094203;28;20032;-50
2023/08/10 05:35:38;;;;;;;9.63;6.00;;;;;;;12.89;100.00;102096.72;5099602;28;20549;-50
2023/08/10 05:38:03;;;;;;;9.45;6.35;;;;;;;12.96;100.00;102097.19;5096529;28;20596;-49
2023/08/10 05:40:29;;;;;;;8.65;6.43;;;;;;;12.98;100.00;102092.59;5100692;28;20516;-50
2023/08/10 05:42:55;;;;;;;8.63;6.10;;;;;;;13.00;100.00;102096.00;5091072;28;20032;-50
2023/08/10 05:45:21;;;;;;;7.88;6.40;;;;;;;13.05;100.00;102088.53;5087197;28;20044;-51
2023/08/10 05:47:47;;;;;;;10.60;6.10;;;;;;;13.09;100.00;102087.41;5096045;28;20073;-51
2023/08/10 05:50:14;;;;;;;8.40;6.20;;;;;;;13.11;100.00;102089.97;5091340;28;20031;-52
2023/08/10 05:52:39;;;;;;;14.70;6.78;;;;;;;13.12;100.00;102091.66;5089393;28;20436;-55
2023/08/10 05:55:05;;;;;;;10.02;7.00;;;;;;;13.17;100.00;102086.84;5090671;28;20024;-55
2023/08/10 05:57:30;;;;;;;11.55;6.85;;;;;;;13.22;100.00;102091.88;5091469;28;20070;-50
2023/08/10 05:59:56;;;;;;;9.40;7.13;;;;;;;13.25;100.00;102092.53;5091163;28;20028;-52
2023/08/10 06:02:22;;;;;;;13.20;7.38;;;;;;;13.30;100.00;102094.88;5089302;28;20032;-50
2023/08/10 06:04:48;;;;;;;9.48;7.38;;;;;;;13.33;100.00;102095.56;5091256;28;20027;-52
2023/08/10 06:07:14;;;;;;;16.13;7.95;;;;;;;13.37;100.00;102092.69;5091685;28;20029;-53
2023/08/10 06:09:39;;;;;;;12.95;7.18;;;;;;;13.43;100.00;102093.13;5093752;28;20065;-51
2023/08/10 06:12:06;;;;;;;12.27;7.72;;;;;;;13.49;100.00;102092.72;5086666;28;20032;-50
2023/08/10 06:14:31;;;;;;;11.85;7.80;;;;;;;13.59;100.00;102100.06;5093799;28;20385;-51
2023/08/10 06:16:57;;;;;;;13.55;7.80;;;;;;;13.67;100.00;102092.38;5091996;28;20073;-50
2023/08/10 06:19:22;;;;;;;13.80;7.95;;;;;;;13.79;100.00;102090.66;5093207;28;20085;-50
2023/08/10 06:21:50;;;;;;;10.73;7.72;;;;;;;13.89;100.00;102097.09;5096164;28;20493;-50
2023/08/10 06:24:16;;;;;;;13.15;7.38;;;;;;;13.95;100.00;102096.63;5100672;28;20038;-51
2023/08/10 06:26:41;;;;;;;10.63;7.10;;;;;;;14.00;100.00;102099.81;5096352;28;20028;-51
2023/08/10 06:29:07;;;;;;;12.52;7.75;;;;;;;14.06;100.00;102098.56;5096161;28;20047;-50
2023/08/10 06:31:32;;;;;;;11.48;7.70;;;;;;;14.16;100.00;102102.25;5095865;28;20501;-51
2023/08/10 06:33:57;;;;;;;11.23;7.55;;;;;;;14.24;100.00;102097.22;5102358;28;20028;-50
2023/08/10 06:36:23;;;;;;;16.98;7.60;;;;;;;14.35;100.00;102095.59;5085013;28;20028;-50
2023/08/10 06:38:49;;;;;;;10.05;7.55;;;;;;;14.49;100.00;102092.78;5102954;28;20042;-50
2023/08/10 06:41:15;;;;;;;12.35;7.60;;;;;;;14.67;100.00;102089.72;5096395;28;20028;-50
2023/08/10 06:43:40;;;;;;;12.05;7.55;;;;;;;14.80;100.00;102087.84;5094917;28;20520;-50
2023/08/10 06:46:06;;;;;;;11.70;7.18;;;;;;;15.05;100.00;102086.00;5100008;28;20007;-49
2023/08/10 06:48:31;;;;;;;10.73;7.05;;;;;;;15.17;100.00;102079.69;5094579;28;20051;-53
2023/08/10 06:50:57;;;;;;;8.93;6.70;;;;;;;15.30;100.00;102083.13;5092935;28;20089;-51
2023/08/10 06:53:22;;;;;;;10.20;6.70;;;;;;;15.51;100.00;102087.81;5095543;28;20024;-52
2023/08/10 06:55:50;;;;;;;10.88;5.50;;;;;;;15.61;97.79;102079.94;5104021;28;20031;-50
2023/08/10 06:58:16;;;;;;;9.90;5.95;;;;;;;15.88;99.43;102082.28;5090478;28;20016;-50
2023/08/10 07:00:41;;;;;;;8.43;5.22;;;;;;;16.01;98.09;102077.66;5096506;28;20152;-50
2023/08/10 07:03:06;;;;;;;8.27;5.53;;;;;;;16.19;98.80;102077.16;5097304;28;20028;-50
2023/08/10 07:05:38;;;;;;;11.30;5.47;;;;;;;16.30;96.27;102076.28;5091667;28;20036;-50
2023/08/10 07:08:03;;;;;;;9.20;5.07;;;;;;;16.52;94.55;102080.72;5092175;28;20032;-50
2023/08/10 07:10:29;;;;;;;8.48;4.55;;;;;;;16.74;94.28;102083.34;5099758;28;20070;-50
2023/08/10 07:12:54;;;;;;;7.47;3.95;;;;;;;16.96;91.24;102076.22;5092201;28;20028;-50
2023/08/10 07:15:19;;;;;;;8.48;3.92;;;;;;;17.23;88.52;102072.16;5095432;28;20035;-50
2023/08/10 07:17:45;;;;;;;9.50;3.92;;;;;;;17.49;89.10;102075.31;5096250;28;20432;-51
2023/08/10 07:20:10;;;;;;;4.75;3.55;;;;;;;17.75;85.86;102081.06;5095554;28;20048;-49
2023/08/10 07:22:36;;;;;;;5.70;3.50;;;;;;;18.06;84.12;102081.94;5098308;28;20020;-51
2023/08/10 07:25:05;;;;;;;8.18;3.25;;;;;;;18.34;82.55;102078.63;5096667;28;20470;-50
2023/08/10 07:27:32;;;;;;;4.95;2.92;;;;;;;18.63;79.25;102086.72;5100192;28;20024;-50
2023/08/10 07:29:58;;;;;;;8.25;3.22;;;;;;;19.07;79.54;102080.94;5095451;28;20362;-52
2023/08/10 07:32:23;;;;;;;5.38;2.83;;;;;;;19.29;76.17;102079.81;5101301;28;20035;-51
2023/08/10 07:34:48;;;;;;;3.40;2.08;;;;;;;19.47;70.90;102083.44;5096759;28;20031;-51
2023/08/10 07:37:14;;;;;;;4.10;2.45;;;;;;;19.74;69.43;102085.34;5092641;28;20012;-50
2023/08/10 07:39:39;;;;;;;3.38;2.10;;;;;;;19.98;61.63;102077.75;5092203;28;20120;-51
2023/08/10 07:42:04;;;;;;;3.33;1.70;;;;;;;20.12;64.98;102079.97;5097179;28;20381;-52
2023/08/10 07:44:30;;;;;;;3.00;1.92;;;;;;;20.32;62.75;102086.09;5098228;28;20032;-50
2023/08/10 07:46:55;;;;;;;4.05;2.15;;;;;;;20.64;61.37;102080.22;5093996;28;20021;-52
2023/08/10 07:49:20;;;;;;;4.15;2.20;;;;;;;20.87;58.61;102083.28;5095283;28;20040;-50
2023/08/10 07:51:47;;;;;;;3.97;2.30;;;;;;;21.09;59.56;102078.41;5095058;28;20035;-50
2023/08/10 07:54:13;;;;;;;3.03;1.63;;;;;;;21.25;54.53;102088.50;5097535;28;20395;-51
2023/08/10 07:56:38;;;;;;;1.95;1.20;;;;;;;21.57;55.45;102082.47;5097244;28;20030;-51
2023/08/10 07:59:04;;;;;;;3.05;1.45;;;;;;;21.84;52.45;102087.88;5095338;28;20106;-50
2023/08/10 08:01:29;;;;;;;6.13;1.45;;;;;;;22.03;50.50;102092.16;5101589;28;20513;-51
2023/08/10 08:03:54;;;;;;;4.53;1.50;;;;;;;22.16;49.63;102093.41;5087375;28;20207;-54
2023/08/10 08:06:20;;;;;;;4.68;1.42;;;;;;;22.27;51.14;102083.31;5100294;28;20028;-51
2023/08/10 08:08:45;;;;;;;3.10;1.50;;;;;;;22.54;50.28;102079.50;5093809;28;20036;-51
2023/08/10 08:11:10;;;;;;;7.38;1.50;;;;;;;22.72;49.25;102071.25;5099413;28;20059;-50
2023/08/10 08:13:36;;;;;;;2.38;1.55;;;;;;;22.90;49.63;102071.09;5093622;28;20031;-51
2023/08/10 08:16:01;;;;;;;2.50;1.42;;;;;;;23.16;50.39;102062.78;5093773;28;20019;-51
2023/08/10 08:18:52;;;;;;;3.10;1.50;;;;;;;23.31;53.35;102062.94;5085160;28;20032;-51
2023/08/10 08:21:21;;;;;;;3.92;1.40;;;;;;;23.51;48.67;102078.81;5094534;28;20023;-54
2023/08/10 08:23:47;;;;;;;1.83;1.00;;;;;;;23.63;47.25;102072.00;5096548;28;20385;-50
2023/08/10 08:26:17;;;;;;;2.50;1.20;;;;;;;23.71;46.75;102079.28;5103359;28;20422;-51
2023/08/10 08:28:44;;;;;;;4.10;1.40;;;;;;;23.95;45.54;102075.66;5093926;28;20107;-52
2023/08/10 08:31:09;;;;;;;4.00;1.33;;;;;;;24.13;46.90;102078.09;5098364;28;20027;-52
2023/08/10 08:33:35;;;;;;;2.20;1.20;;;;;;;24.24;45.52;102082.31;5096559;28;20394;-51
2023/08/10 08:36:01;;;;;;;5.05;1.65;;;;;;;24.59;43.95;102083.63;5097452;28;20393;-51
2023/08/10 08:38:27;;;;;;;2.05;1.00;;;;;;;24.94;46.22;102084.06;5094628;28;20024;-51
2023/08/10 08:40:55;;;;;;;2.38;1.20;;;;;;;24.94;42.72;102078.63;5095181;28;20039;-50
2023/08/10 08:43:20;;;;;;;4.60;1.58;;;;;;;25.20;44.29;102086.38;5096700;28;20040;-50
2023/08/10 08:45:46;;;;;;;1.77;1.30;;;;;;;25.33;44.85;102079.47;5090638;28;20024;-52
2023/08/10 08:48:16;;;;;;;2.20;1.40;;;;;;;25.56;44.78;102071.25;5094925;28;20016;-52
2023/08/10 08:50:43;;;;;;;3.25;1.20;;;;;;;25.94;44.15;102082.03;5095413;28;20055;-49
2023/08/10 08:53:10;;;;;;;2.75;1.30;;;;;;;25.91;43.62;102077.78;5095302;28;20020;-49
2023/08/10 08:55:37;;;;;;;1.98;1.20;;;;;;;25.90;42.96;102075.28;5097886;28;20038;-50
2023/08/10 08:58:03;;;;;;;2.95;1.17;;;;;;;26.03;43.07;102084.50;5097787;28;20592;-50
2023/08/10 09:00:30;;;;;;;1.92;1.10;;;;;;;25.69;42.33;102078.75;5095091;28;20102;-51
2023/08/10 09:02:56;;;;;;;5.88;1.40;;;;;;;25.70;42.02;102080.44;5092052;28;20466;-50
2023/08/10 09:05:21;;;;;;;3.03;1.08;;;;;;;25.78;44.87;102075.75;5096098;28;20023;-50
2023/08/10 09:07:46;;;;;;;2.75;1.25;;;;;;;25.56;42.41;102065.81;5093473;28;20028;-51
2023/08/10 09:10:12;;;;;;;2.28;1.20;;;;;;;25.60;42.80;102059.81;5092336;28;20343;-51
2023/08/10 09:12:40;;;;;;;1.58;1.10;;;;;;;25.24;42.36;102059.66;5098142;28;20115;-53
2023/08/10 09:15:05;;;;;;;3.92;1.40;;;;;;;25.34;45.19;102062.16;5094482;28;20040;-52
2023/08/10 09:17:33;;;;;;;2.15;1.13;;;;;;;25.23;45.55;102060.69;5093119;28;20040;-53
2023/08/10 09:19:59;;;;;;;2.35;1.30;;;;;;;25.24;44.36;102057.78;5100080;28;20094;-51
2023/08/10 09:22:33;;;;;;;1.90;1.35;;;;;;;25.09;46.68;102055.03;5087731;28;20038;-52
2023/08/10 09:24:59;;;;;;;2.17;1.33;;;;;;;25.12;45.49;102057.38;5091111;28;20035;-51
2023/08/10 09:27:27;;;;;;;2.80;1.15;;;;;;;25.22;44.08;102061.72;5091291;28;20464;-52
2023/08/10 09:30:00;;;;;;;1.95;1.30;;;;;;;25.39;44.97;102057.81;5089803;28;20051;-54
2023/08/10 09:32:26;;;;;;;3.05;1.33;;;;;;;25.37;44.57;102053.63;5095661;28;20035;-51
2023/08/10 09:34:52;;;;;;;3.30;1.33;;;;;;;25.37;43.71;102056.34;5094577;28;20027;-54
2023/08/10 09:37:18;;;;;;;4.90;1.10;;;;;;;25.51;44.64;102051.94;5097083;28;20048;-53
2023/08/10 09:39:44;;;;;;;3.05;1.42;;;;;;;25.43;42.40;102053.72;5091882;28;20101;-54
2023/08/10 09:42:09;;;;;;;2.15;1.25;;;;;;;25.41;44.18;102054.91;5093325;28;20028;-51
2023/08/10 09:44:51;;;;;;;1.23;0.93;;;;;;;25.53;45.15;102063.47;5084022;28;20044;-53
2023/08/10 09:47:18;;;;;;;1.85;1.42;;;;;;;25.60;43.31;102056.25;5099946;28;20046;-52
2023/08/10 09:50:03;;;;;;;1.90;1.23;;;;;;;25.68;44.57;102064.31;5091355;28;20040;-52
2023/08/10 09:52:29;;;;;;;2.38;1.50;;;;;;;25.66;42.80;102063.66;5093164;28;20032;-53
2023/08/10 09:54:56;;;;;;;3.55;1.60;;;;;;;25.71;43.33;102052.19;5092433;28;20043;-52
2023/08/10 09:57:22;;;;;;;3.72;1.42;;;;;;;25.70;42.91;102053.22;5090793;28;20024;-52
2023/08/10 09:59:48;;;;;;;2.22;0.98;;;;;;;25.79;44.31;102058.38;5093565;28;20024;-52
2023/08/10 10:02:15;;;;;;;3.53;1.55;;;;;;;25.71;45.71;102055.75;5098070;28;20031;-52
2023/08/10 10:04:47;;;;;;;4.10;1.33;;;;;;;25.65;45.59;102065.53;5095646;28;20221;-52
2023/08/10 10:07:14;;;;;;;3.40;1.40;;;;;;;25.71;43.38;102065.81;5094475;28;20037;-52
2023/08/10 10:09:43;;;;;;;2.33;1.63;;;;;;;25.58;45.46;102063.75;5089365;28;20024;-53
2023/08/10 10:12:12;;;;;;;;;;;;;;;26.00;48.43;102064.97;5092010;28;20111;-55
2023/08/10 10:14:43;;;;;;;2.85;1.50;;;;;;;25.76;45.42;102063.38;5094858;28;19939;-54
2023/08/10 10:17:14;;;;;;;2.80;1.50;;;;;;;25.63;43.84;102069.47;5093722;28;20074;-54
2023/08/10 10:19:40;;;;;;;2.72;1.50;;;;;;;25.59;44.65;102068.16;5098976;28;20015;-54
2023/08/10 10:22:06;;;;;;;2.63;1.60;;;;;;;25.59;43.84;102069.00;5095676;28;20047;-51
2023/08/10 10:24:33;;;;;;;2.72;1.67;;;;;;;25.65;43.93;102065.53;5099278;28;20066;-51
2023/08/10 10:27:05;;;;;;;3.25;1.60;;;;;;;25.48;47.58;102064.03;5094432;28;20023;-51
2023/08/10 10:29:40;;;;;;;4.88;1.70;;;;;;;25.52;43.79;102073.50;5098362;28;20419;-51
2023/08/10 10:32:11;;;;;;;4.72;1.88;;;;;;;25.45;46.47;102073.41;5090086;28;20049;-51
2023/08/10 10:34:37;;;;;;;3.35;1.35;;;;;;;25.50;45.25;102064.69;5098871;28;20067;-51
2023/08/10 10:37:12;;;;;;;2.83;1.60;;;;;;;25.51;43.62;102060.94;5096227;28;20028;-52
2023/08/10 10:40:13;;;;;;;2.90;1.73;;;;;;;25.77;45.27;102065.06;5090055;28;20028;-51
2023/08/10 10:43:04;;;;;;;3.40;1.30;;;;;;;25.88;45.63;102058.28;5086414;28;20043;-51
2023/08/10 10:45:38;;;;;;;4.22;1.80;;;;;;;25.88;44.48;102056.44;5092258;28;20101;-51
2023/08/10 10:48:05;;;;;;;2.22;1.83;;;;;;;26.03;44.11;102060.00;5094353;28;20325;-51
2023/08/10 10:50:32;;;;;;;1.52;1.35;;;;;;;25.95;44.81;102053.78;5093326;28;20019;-52
2023/08/10 10:53:00;;;;;;;4.50;1.65;;;;;;;26.04;44.18;102055.38;5094043;28;20035;-51
2023/08/10 10:55:36;;;;;;;2.22;1.42;;;;;;;26.10;42.15;102046.47;5095046;28;20107;-52
2023/08/10 10:58:03;;;;;;;5.07;1.73;;;;;;;26.02;40.99;102041.13;5091043;28;20032;-53
2023/08/10 11:00:29;;;;;;;1.98;1.30;;;;;;;26.06;41.82;102049.75;5096109;28;20031;-51
2023/08/10 11:02:55;;;;;;;3.40;1.40;;;;;;;26.03;40.87;102049.09;5090681;28;20070;-52
2023/08/10 11:05:20;;;;;;;3.80;1.90;;;;;;;26.13;40.95;102054.25;5098466;28;20051;-51
2023/08/10 11:07:48;;;;;;;2.85;1.50;;;;;;;26.30;41.80;102038.50;5101661;28;20051;-53
2023/08/10 11:10:15;;;;;;;5.15;1.38;;;;;;;26.54;44.04;102029.09;5097636;28;20027;-51
2023/08/10 11:12:42;;;;;;;2.58;1.77;;;;;;;26.64;41.14;102044.31;5095850;28;20089;-51
2023/08/10 11:15:12;;;;;;;5.50;1.83;;;;;;;26.61;42.69;102037.34;5099663;28;20076;-52
2023/08/10 11:17:39;;;;;;;3.17;1.45;;;;;;;26.76;41.33;102037.28;5095434;28;20456;-52
2023/08/10 11:20:14;;;;;;;2.83;1.50;;;;;;;26.83;41.99;102032.75;5098399;28;20375;-51